Aerodrome Latest Weathers

# Airport/Station Observation Time (Local Time) Wind Visibility (km) Weather Temp. (°C) Dewdrop (°C) Air Pressure (hPa)
Direction (from) Speed (km/h)
1 Maimun Saleh - Sabang 2022-10-06 05:00:00 WIB Selatan 9.3 5.0 Udara kabur 24 23 1009
2 Sultan Iskandar Muda - Banda Aceh 2022-10-06 05:00:00 WIB Tenggara 5.6 >=10 Berawan 24 23 1008
3 Cut Nyak Dien Nagan Raya - Meulaboh, NAD 2022-10-06 05:00:00 WIB Timur Laut 3.7 6.0 Berawan 23 23 1009
4 Malikus Saleh - Lhokseumawe 2022-10-06 03:00:00 WIB Tenang 6.0 Cerah - berawan 25 25 1008
5 Binaka - Gunung Sitoli 2022-10-06 05:30:00 WIB Selatan 3.7 6.0 Hujan ringan 24 23 1008
6 Kualanamu International Airport - Deli Serdang 2022-10-06 05:30:00 WIB Selatan 9.3 4.5 Halimun 24 23 1007
7 Dr. Ferdinand Lumban Tobing - Pinangsori (Sibolga) 2022-10-06 05:30:00 WIB Variabel 3.7 >=10 Berawan 22 21 1008
8 Silangit - Tapanuli Utara 2022-10-06 05:30:00 WIB Barat 13.0 >=10 Berawan 17 16 1016
9 Aek Godang - Padang Sidempuan 2022-10-06 05:30:00 WIB Barat 5.6 8.0 Berawan 24 19 1009
10 Minangkabau International Airport - Padang 2022-10-06 05:30:00 WIB Variabel 3.7 >=10 Berawan 24 23 1009
11 Sultan Syarif Kasim II - Pekanbaru 2022-10-06 05:30:00 WIB Selatan 7.4 7.0 Berawan 23 23 1008
12 Depati Parbo - Kerinci 2022-10-06 05:30:00 WIB Tenang 4.0 Berawan 20 19 1015
13 Fatmawati Sukarno - Bengkulu 2022-10-06 05:30:00 WIB Timur 1.9 >=10 Cerah - berawan 24 24 1007
14 Sultan Thaha - Jambi 2022-10-06 05:30:00 WIB Selatan 5.6 4.6 Halimun 24 24 1009
15 Hang Nadim - Batam 2022-10-06 05:30:00 WIB Tenang >=10 Cerah - berawan 26 24 1010
16 Raja Haji Fisabilillah - Tanjung Pinang 2022-10-06 05:30:00 WIB Timur 5.6 9.0 Berawan 25 24 1009
17 Dabo - Singkep 2022-10-06 05:00:00 WIB Timur Laut 16.7 7.0 Cerah - berawan 26 25 1008
18 Sultan Mahmud Badaruddin II - Palembang 2022-10-06 05:00:00 WIB Utara 3.7 3.0 Halimun 23 23 1009
19 Radin Inten II - Lampung 2022-10-06 05:30:00 WIB Tenang >=10 Berawan 24 24 1009
20 Depati Amir - Pangkal Pinang 2022-10-06 05:30:00 WIB Selatan 3.7 5.0 Hujan ringan 25 24 1008
21 Budiarto - Curug 2022-10-06 05:30:00 WIB Selatan 1.9 3.0 Halimun 23 23 1009
22 Soekarno Hatta - Jakarta 2022-10-06 05:30:00 WIB Selatan 5.6 2.4 Halimun 25 24 1009
23 Atang Sendjaja - Bogor 2022-10-06 05:30:00 WIB Tenang 4.0 Udara kabur 23 22 1008
24 Halim Perdana Kusuma - Jakarta 2022-10-06 05:30:00 WIB Barat Daya 7.4 5.0 Udara kabur 25 24 1009
25 Husein Sastranegara - Bandung 2022-10-06 05:30:00 WIB Timur Laut 7.4 4.0 Udara kabur 22 21 1016
26 H.A.S. Hanandjoeddin - Tanjung Pandan 2022-10-06 05:30:00 WIB Selatan 5.6 4.0 Halimun 24 23 1008
27 Kertajati 2022-10-06 05:30:00 WIB Selatan 7.4 >=10 Cerah - berawan 24 22 1009
28 Ranai - Natuna 2022-10-06 04:30:00 WIB Barat 7.4 >=10 Berawan 25 25 1009
29 Cakrabhuwana / Penggung - Cirebon 2022-10-06 05:30:00 WIB Barat 3.7 Cerah 23 22 1009
30 Tunggul Wulung - Cilacap 2022-10-06 05:30:00 WIB Timur 7.4 Cerah 24 24 1010
31 Paloh - Sambas 2022-10-06 05:00:00 WIB Timur 1.9 7.0 Cerah - berawan 24 23 1010
32 Supadio - Pontianak 2022-10-06 05:30:00 WIB Timur Laut 3.7 0.5 Berkabut 23 23 1009
33 Rahadi Oesman - Ketapang 2022-10-06 05:30:00 WIB Timur Laut 1.9 6.0 Cerah - berawan 23 23 1009
34 Yogyakarta International Airport - Kulonprogo 2022-10-06 05:30:00 WIB Timur Laut 5.6 4.0 Hujan ringan 24 23 1010
35 Ahmad Yani - Semarang 2022-10-06 05:30:00 WIB Tenggara 3.7 6.0 Cerah - berawan 25 23 1009
36 Adi Sutjipto - Yogyakarta 2022-10-06 05:30:00 WIB Timur 3.7 6.0 Berawan 25 23 1010
37 Adi Soemarmo - Surakarta 2022-10-06 05:30:00 WIB Barat Daya 7.4 6.0 Cerah - berawan 25 23 1010
38 Iswahjudi - Madiun 2022-10-06 05:00:00 WIB Selatan 7.4 5.0 Udara kabur 24 23 1010
39 Tebelian - Sintang 2022-10-06 05:00:00 WIB Tenang 3.0 Hujan ringan 24 24 1009
40 Iskandar - Pangkalan Bun 2022-10-06 05:30:00 WIB Tenang 4.0 Halimun 23 23 1009
41 Juanda - Surabaya 2022-10-06 05:30:00 WIB Variabel 3.7 5.0 Udara kabur 26 24 1009
42 Pangsuma - Putussibau 2022-10-06 04:00:00 WIB Timur Laut 3.7 5.0 Udara kabur 25 24 1010
43 Haji Asan - Sampit 2022-10-06 05:30:00 WIB Tenang 3.0 Halimun 24 23 1009
44 Tjilik Riwut - Palangkaraya 2022-10-06 05:30:00 WIB Utara 7.4 8.0 Berawan 25 24 1009
45 Banyuwangi 2022-10-06 05:30:00 WIB Barat 7.4 8.0 Berawan 25 24 1011
46 Beringin - Muara Teweh 2022-10-06 05:30:00 WIB Tenang 4.0 Halimun 25 24 1010
47 H. Hasan Aroeboesman - Ende 2022-10-06 05:30:00 WIB Tenang 8.0 Berawan 25 25 1011
48 Syamsudin Noor - Banjarmasin 2022-10-06 06:30:00 WITA Timur Laut 7.4 9.0 Cerah - berawan 24 23 1010
49 I Gusti Ngurah Rai - Denpasar 2022-10-06 06:30:00 WITA Variabel 3.7 >=10 Berawan 25 24 1010
50 Gusti Sjamsir Alam - Kota Baru 2022-10-06 06:30:00 WITA Timur Laut 1.9 8.0 Berawan 24 24 1011
51 Bandara Internasional Lombok - Praya 2022-10-06 06:30:00 WITA Selatan 7.4 3.0 Hujan ringan 1012
52 Sultan Aji Muhammad Sulaiman - Sepinggan 2022-10-06 06:30:00 WITA Tenang >=10 Hujan ringan 24 24 1009
53 Aji Pangeran Tumenggung Pranoto - Samarinda 2022-10-06 06:30:00 WITA Selatan 7.4 2.4 Hujan 24 24 1010
54 Tanjung Harapan - Tanjung Selor 2022-10-06 06:30:00 WITA Tenang 6.0 Cerah - berawan 24 23 1010
55 Sultan Muhammad Kaharuddin - Sumbawa Besar 2022-10-06 06:30:00 WITA Tenggara 5.6 >=10 Cerah - berawan 26 23 1009
56 Kalimarau - Tanjung Redeb 2022-10-06 06:30:00 WITA Barat Daya 7.4 3.9 Halimun 23 23 1011
57 Juwata - Tarakan 2022-10-06 06:30:00 WITA Barat Laut 5.6 9.0 Cerah - berawan 26 24 1010
58 Nunukan 2022-10-06 06:00:00 WITA Barat Daya 3.7 7.0 Berawan 25 25 1009
59 Sultan Muhammad Salahuddin - Bima 2022-10-06 06:30:00 WITA Tenang 9.0 Berawan 25 24 1010
60 Tampa Padang - Mamuju 2022-10-06 06:30:00 WITA Selatan 3.7 >=10 Berawan 24 24 1010
61 Sultan Hasanuddin - Makassar 2022-10-06 06:30:00 WITA Timur 9.3 >=10 Cerah - berawan 24 24 1010
62 Komodo - Labuan Bajo 2022-10-06 06:30:00 WITA Selatan 3.7 >=10 Cerah - berawan 25 23 1011
63 Mutiara SIS Al-Jufri - Palu 2022-10-06 06:30:00 WITA Tenang >=10 Berawan 25 25 1011
64 Umbu Mehang Kunda - Waingapu 2022-10-06 06:00:00 WITA Barat Daya 7.4 6.0 Berawan 25 24 1010
65 Andi Jemma - Masamba 2022-10-06 06:00:00 WITA Tenang 7.0 Berawan 24 23 1011
66 Frans Sales Lega - Ruteng 2022-10-06 06:30:00 WITA Tenang Cerah 18 17 1017
67 Kasiguncu - Poso 2022-10-06 06:00:00 WITA Tenang >=10 Cerah - berawan 24 23 1009
68 Sultan Bantilan - Toli Toli 2022-10-06 06:00:00 WITA Tenang >=10 Hujan tiba-tiba di sekitarnya 25 24 1009
69 Tardamu - Sabu 2022-10-06 06:30:00 WITA Selatan 5.6 9.0 Berawan 27 25 1011
70 Fransiskus Xaverius Seda - Maumere 2022-10-06 06:30:00 WITA Selatan 14.8 >=10 Berawan 27 25 1011
71 Syukuran Aminuddin Amir - Luwuk 2022-10-06 06:00:00 WITA Barat 5.6 >=10 Berawan 24 23 1009
72 Djalaluddin - Gorontalo 2022-10-06 06:30:00 WITA Tenggara 5.6 >=10 Berawan 25 25 1009
73 Gewayantana - Larantuka 2022-10-06 06:30:00 WITA Tenang >=10 Cerah - berawan 26 24 1010
74 David Constantijn Saudale - Rote 2022-10-06 06:00:00 WITA Tenggara 7.4 >=10 Cerah - berawan 25 25 1012
75 El Tari - Kupang 2022-10-06 06:30:00 WITA Tenggara 9.3 >=10 Berawan 27 24 1011
76 Mali - Alor 2022-10-06 06:00:00 WITA Tenang >=10 Cerah - berawan 25 23 1011
77 Sam Ratulangi - Manado 2022-10-06 06:30:00 WITA Tenggara 5.6 >=10 Berawan 25 24 1009
78 Naha - Tahuna 2022-10-06 06:00:00 WITA Timur 5.6 7.0 Berawan 27 25 1008
79 Emalamo - Sanana 2022-10-06 07:00:00 WIT Barat 3.7 >=10 Cerah - berawan 25 24 1009
80 Namniwel - Namlea 2022-10-06 07:00:00 WIT Barat Daya 9.3 9.0 Cerah - berawan 24 23 1008
81 Sultan Babullah - Ternate 2022-10-06 07:30:00 WIT Selatan 5.6 >=10 Cerah - berawan 27 25 1010
82 Oesman Sadik - Labuha 2022-10-06 07:00:00 WIT Tenang 9.0 Berawan 24 23 1009
83 Gamar Malamo - Galela 2022-10-06 06:00:00 WIT Tenang >=10 Cerah - berawan 23 23 1008
84 Pattimura - Ambon 2022-10-06 07:30:00 WIT Utara 11.1 >=10 Cerah - berawan 26 24 1010
85 Pitu - Morotai 2022-10-06 07:00:00 WIT Timur Laut 3.7 >=10 Berawan 25 24 1009
86 Amahai 2022-10-06 07:00:00 WIT Tenang >=10 Cerah - berawan 24 23 1010
87 Bandaneira - Banda 2022-10-06 07:00:00 WIT Barat Daya 5.6 8.0 Cerah - berawan 25 24 1009
88 Domine Eduard Osok - Sorong 2022-10-06 07:30:00 WIT Timur 5.6 9.0 Berawan 27 25 1010
89 Mathilda Batlayeri - Saumlaki 2022-10-06 07:00:00 WIT Timur 5.6 8.0 Berawan 26 25 1010
90 Torea - Fak Fak 2022-10-06 07:00:00 WIT Utara 5.6 9.0 Cerah - berawan 24 22 1011
91 Dumatubun - Langgur 2022-10-06 07:10:00 WIT Tenggara 18.5 6.0 Hujan 27 25 1011
92 Karel Sadsuitubun - Tual 2022-10-06 07:00:00 WIT Timur 5.6 >=10 Berawan 27 25 1011
93 Utarom - Kaimana 2022-10-06 07:00:00 WIT Tenggara 5.6 Cerah 26 25 1010
94 Rendani - Manokwari 2022-10-06 07:30:00 WIT Tenang >=10 Berawan 27 25 1010
95 Douw Aturure - Nabire 2022-10-06 07:30:00 WIT Tenggara 3.7 >=10 Berawan 26 24 1011
96 Frans Kaisiepo - Biak 2022-10-06 07:30:00 WIT Timur 5.6 9.0 Berawan 27 25 1011
97 Enarotali 2022-10-06 07:00:00 WIT Timur 5.6 7.0 Berawan 18 16 1011
98 Mozes Kilangin - Timika 2022-10-06 07:30:00 WIT Timur 18.5 6.0 Hujan tiba-tiba di sekitarnya 25 25 1014
99 Mararena / Orai - Sarmi 2022-10-06 07:00:00 WIT Tenang >=10 Cerah - berawan 28 26 1010
100 Wamena 2022-10-06 07:30:00 WIT Variabel 1.9 5.0 Berawan 16 14 1023
101 Mopah - Merauke 2022-10-06 07:30:00 WIT Timur 13.0 >=10 Cerah - berawan 28 26 1010
102 Sentani - Jayapura 2022-10-06 07:30:00 WIT Tenggara 11.1 >=10 Cerah - berawan 30 24 1010

Satellite Images

Wave Height Forecast

Wind Forecast

Forest Fires